createdAt,value
2023-04-16T00:00:46.540Z,95.77
2023-04-16T00:01:46.308Z,96.08
2023-04-16T00:02:46.576Z,96.49
2023-04-16T00:03:46.590Z,96.95
2023-04-16T00:04:46.749Z,97.47
2023-04-16T00:05:46.371Z,97.98
2023-04-16T00:06:46.398Z,98.29
2023-04-16T00:07:45.609Z,98.39
2023-04-16T00:08:46.431Z,98.60
2023-04-16T00:09:46.361Z,98.80
2023-04-16T00:10:46.519Z,98.85
2023-04-16T00:11:46.375Z,98.85
2023-04-16T00:12:46.371Z,98.85
2023-04-16T00:13:46.332Z,98.85
2023-04-16T00:14:46.238Z,98.75
2023-04-16T00:15:46.271Z,98.75
2023-04-16T00:16:46.297Z,98.75
2023-04-16T00:17:46.356Z,98.80
2023-04-16T00:18:46.149Z,98.60
2023-04-16T00:19:46.287Z,98.54
2023-04-16T00:20:46.178Z,98.65
2023-04-16T00:21:46.330Z,98.65
2023-04-16T00:22:46.193Z,98.60
2023-04-16T00:23:46.260Z,98.70
2023-04-16T00:24:46.156Z,98.60
2023-04-16T00:25:46.254Z,98.70
2023-04-16T00:26:46.393Z,98.70
2023-04-16T00:27:46.200Z,98.66
2023-04-16T00:28:46.192Z,98.55
2023-04-16T00:29:46.003Z,98.24
2023-04-16T00:30:46.307Z,97.63
2023-04-16T00:31:46.068Z,97.52
2023-04-16T00:32:46.265Z,97.11
2023-04-16T00:33:46.027Z,97.16
2023-04-16T00:34:46.228Z,97.47
2023-04-16T00:35:46.018Z,97.77
2023-04-16T00:36:46.149Z,97.98
2023-04-16T00:37:46.128Z,97.88
2023-04-16T00:38:46.251Z,97.98
2023-04-16T00:39:46.021Z,97.98
2023-04-16T00:40:46.188Z,98.03
2023-04-16T00:41:46.241Z,97.83
2023-04-16T00:42:46.147Z,97.88
2023-04-16T00:43:46.009Z,97.77
2023-04-16T00:44:45.248Z,98.08
2023-04-16T00:45:46.006Z,98.39
2023-04-16T00:46:45.881Z,98.50
2023-04-16T00:47:46.153Z,98.60
2023-04-16T00:48:45.827Z,98.85
2023-04-16T00:49:45.973Z,99.16
2023-04-16T00:50:45.858Z,99.26
2023-04-16T00:51:45.952Z,99.37
2023-04-16T00:52:45.946Z,99.47
2023-04-16T00:53:46.055Z,99.47
2023-04-16T00:54:46.049Z,99.47
2023-04-16T00:55:46.007Z,99.47
2023-04-16T00:56:45.851Z,99.26
2023-04-16T00:57:45.969Z,99.37
2023-04-16T00:58:45.857Z,99.47
2023-04-16T00:59:45.886Z,99.47
2023-04-16T01:00:45.826Z,99.37
2023-04-16T01:01:45.750Z,99.47
2023-04-16T01:02:45.966Z,99.47
2023-04-16T01:03:45.212Z,99.26
2023-04-16T01:04:45.828Z,99.26
2023-04-16T01:05:45.692Z,99.26
2023-04-16T01:06:45.840Z,99.26
2023-04-16T01:07:45.716Z,99.47
2023-04-16T01:08:45.955Z,99.57
2023-04-16T01:09:45.050Z,99.57
2023-04-16T01:10:45.822Z,99.57
2023-04-16T01:11:45.730Z,99.78
2023-04-16T01:12:45.768Z,99.88
2023-04-16T01:13:45.729Z,99.99
2023-04-16T01:14:45.948Z,99.78
2023-04-16T01:15:45.788Z,99.26
2023-04-16T01:16:45.762Z,99.37
2023-04-16T01:17:45.812Z,99.22
2023-04-16T01:18:46.312Z,99.32
2023-04-16T01:19:45.806Z,99.22
2023-04-16T01:20:45.511Z,99.01
2023-04-16T01:21:45.682Z,98.80
2023-04-16T01:22:45.530Z,99.01
2023-04-16T01:23:45.711Z,98.66
2023-04-16T01:24:45.660Z,98.03
2023-04-16T01:25:45.801Z,97.83
2023-04-16T01:26:45.537Z,97.52
2023-04-16T01:27:45.748Z,97.26
2023-04-16T01:28:45.590Z,97.47
2023-04-16T01:29:45.652Z,97.42
2023-04-16T01:30:45.527Z,97.21
2023-04-16T01:31:45.607Z,97.01
2023-04-16T01:32:45.567Z,97.01
2023-04-16T01:33:45.351Z,97.21
2023-04-16T01:34:45.531Z,97.88
2023-04-16T01:35:45.426Z,97.77
2023-04-16T01:36:45.515Z,97.36
2023-04-16T01:37:45.348Z,97.47
2023-04-16T01:38:45.583Z,97.67
2023-04-16T01:39:45.320Z,97.67
2023-04-16T01:40:45.580Z,97.47
2023-04-16T01:41:45.347Z,97.26
2023-04-16T01:42:45.448Z,97.16
2023-04-16T01:43:45.365Z,96.95
2023-04-16T01:44:45.441Z,96.95
2023-04-16T01:45:45.453Z,96.74
2023-04-16T01:46:45.471Z,96.89
2023-04-16T01:47:45.399Z,97.30
2023-04-16T01:48:45.523Z,97.41
2023-04-16T01:49:45.417Z,97.51
2023-04-16T01:50:45.280Z,97.36
2023-04-16T01:51:45.425Z,97.36
2023-04-16T01:52:45.182Z,97.36
2023-04-16T01:53:45.387Z,97.47
2023-04-16T01:54:45.247Z,97.56
2023-04-16T01:55:45.356Z,97.36
2023-04-16T01:56:45.260Z,97.36
2023-04-16T01:57:45.401Z,97.51
2023-04-16T01:58:45.182Z,97.72
2023-04-16T01:59:45.321Z,97.72
2023-04-16T02:00:44.524Z,97.56
2023-04-16T02:01:46.114Z,97.56
2023-04-16T02:02:45.427Z,97.47
2023-04-16T02:03:45.667Z,97.47
2023-04-16T02:04:45.363Z,97.67
2023-04-16T02:05:45.081Z,97.56
2023-04-16T02:06:45.191Z,97.41
2023-04-16T02:07:45.115Z,97.51
2023-04-16T02:08:45.193Z,97.82
2023-04-16T02:09:45.039Z,97.92
2023-04-16T02:10:45.234Z,97.77
2023-04-16T02:11:45.112Z,97.88
2023-04-16T02:12:45.417Z,97.98
2023-04-16T02:13:45.080Z,97.98
2023-04-16T02:14:45.163Z,97.77
2023-04-16T02:15:45.030Z,97.77
2023-04-16T02:16:45.198Z,97.67
2023-04-16T02:17:45.171Z,97.36
2023-04-16T02:18:45.167Z,97.36
2023-04-16T02:19:45.053Z,97.36
2023-04-16T02:20:45.189Z,97.56
2023-04-16T02:21:45.071Z,97.56
2023-04-16T02:22:44.840Z,97.47
2023-04-16T02:23:45.109Z,97.56
2023-04-16T02:24:44.869Z,97.47
2023-04-16T02:25:45.247Z,97.47
2023-04-16T02:26:44.877Z,97.47
2023-04-16T02:27:45.046Z,97.16
2023-04-16T02:28:44.914Z,97.36
2023-04-16T02:29:45.032Z,97.26
2023-04-16T02:30:44.866Z,97.20
2023-04-16T02:31:45.042Z,97.72
2023-04-16T02:32:44.983Z,97.88
2023-04-16T02:33:45.006Z,97.88
2023-04-16T02:34:44.864Z,97.88
2023-04-16T02:35:44.917Z,97.88
2023-04-16T02:36:44.887Z,97.56
2023-04-16T02:37:44.735Z,97.47
2023-04-16T02:38:44.847Z,97.36
2023-04-16T02:39:44.756Z,97.36
2023-04-16T02:40:44.906Z,97.36
2023-04-16T02:41:44.715Z,97.47
2023-04-16T02:42:44.876Z,97.56
2023-04-16T02:43:44.730Z,97.56
2023-04-16T02:44:44.916Z,97.61
2023-04-16T02:45:44.814Z,97.82
2023-04-16T02:46:44.821Z,97.98
2023-04-16T02:47:44.707Z,98.08
2023-04-16T02:48:44.827Z,97.88
2023-04-16T02:49:44.773Z,97.92
2023-04-16T02:50:44.889Z,97.92
2023-04-16T02:51:44.708Z,98.08
2023-04-16T02:52:44.599Z,98.19
2023-04-16T02:53:44.685Z,97.98
2023-04-16T02:54:44.598Z,97.88
2023-04-16T02:55:44.759Z,97.67
2023-04-16T02:56:44.600Z,97.16
2023-04-16T02:57:44.717Z,97.47
2023-04-16T02:58:44.542Z,97.67
2023-04-16T02:59:44.687Z,97.67
2023-04-16T03:00:44.598Z,97.88
2023-04-16T03:01:44.764Z,97.88
2023-04-16T03:02:44.658Z,97.67
2023-04-16T03:03:44.729Z,97.88
2023-04-16T03:04:44.925Z,97.88
2023-04-16T03:05:44.675Z,97.77
2023-04-16T03:06:44.536Z,97.77
2023-04-16T03:07:44.683Z,97.88
2023-04-16T03:08:44.541Z,97.98
2023-04-16T03:09:44.406Z,97.98
2023-04-16T03:10:44.596Z,97.88
2023-04-16T03:11:44.508Z,97.77
2023-04-16T03:12:44.567Z,97.77
2023-04-16T03:13:44.407Z,97.67
2023-04-16T03:14:44.547Z,97.67
2023-04-16T03:15:44.381Z,97.67
2023-04-16T03:16:44.547Z,97.56
2023-04-16T03:17:44.549Z,97.52
2023-04-16T03:18:44.755Z,97.52
2023-04-16T03:19:44.434Z,97.26
2023-04-16T03:20:44.544Z,97.05
2023-04-16T03:21:43.707Z,97.26
2023-04-16T03:22:44.557Z,97.36
2023-04-16T03:23:44.418Z,97.52
2023-04-16T03:24:44.300Z,97.42
2023-04-16T03:25:44.391Z,97.31
2023-04-16T03:26:44.308Z,97.16
2023-04-16T03:27:44.400Z,97.05
2023-04-16T03:28:44.232Z,96.95
2023-04-16T03:29:43.589Z,97.36
2023-04-16T03:30:44.258Z,97.56
2023-04-16T03:31:44.492Z,97.56
2023-04-16T03:32:44.280Z,97.61
2023-04-16T03:33:44.439Z,97.82
2023-04-16T03:34:44.200Z,98.02
2023-04-16T03:35:44.290Z,98.02
2023-04-16T03:36:44.250Z,98.33
2023-04-16T03:37:44.402Z,98.44
2023-04-16T03:38:44.249Z,98.23
2023-04-16T03:39:44.277Z,98.44
2023-04-16T03:40:44.248Z,98.39
2023-04-16T03:41:44.073Z,98.29
2023-04-16T03:42:44.326Z,98.19
2023-04-16T03:43:44.253Z,98.19
2023-04-16T03:44:44.209Z,97.88
2023-04-16T03:45:44.074Z,97.98
2023-04-16T03:46:44.332Z,97.98
2023-04-16T03:47:44.354Z,97.88
2023-04-16T03:48:44.300Z,98.08
2023-04-16T03:49:44.111Z,98.19
2023-04-16T03:50:44.172Z,98.08
2023-04-16T03:51:44.073Z,97.88
2023-04-16T03:52:44.343Z,97.88
2023-04-16T03:53:44.052Z,97.88
2023-04-16T03:54:44.175Z,97.88
2023-04-16T03:55:44.071Z,97.98
2023-04-16T03:56:43.910Z,97.56
2023-04-16T03:57:44.131Z,97.36
2023-04-16T03:58:44.089Z,97.67
2023-04-16T03:59:44.129Z,97.67
2023-04-16T04:00:43.944Z,97.47
2023-04-16T04:01:44.121Z,97.67
2023-04-16T04:02:44.150Z,97.88
2023-04-16T04:03:44.317Z,97.98
2023-04-16T04:04:44.015Z,97.67
2023-04-16T04:05:44.121Z,97.98
2023-04-16T04:06:43.970Z,97.61
2023-04-16T04:07:44.021Z,97.72
2023-04-16T04:08:44.312Z,98.02
2023-04-16T04:09:43.975Z,98.54
2023-04-16T04:10:43.912Z,98.23
2023-04-16T04:11:44.040Z,98.44
2023-04-16T04:12:43.952Z,98.29
2023-04-16T04:13:43.802Z,97.98
2023-04-16T04:14:44.008Z,97.88
2023-04-16T04:15:43.777Z,97.98
2023-04-16T04:16:43.933Z,97.88
2023-04-16T04:17:43.825Z,97.88
2023-04-16T04:18:44.528Z,97.88
2023-04-16T04:19:54.225Z,97.98
2023-04-16T04:20:43.871Z,97.88
2023-04-16T04:21:43.768Z,97.98
2023-04-16T04:22:43.871Z,97.98
2023-04-16T04:23:43.831Z,97.98
2023-04-16T04:24:43.912Z,97.88
2023-04-16T04:25:43.811Z,97.98
2023-04-16T04:26:43.868Z,97.88
2023-04-16T04:27:43.759Z,97.67
2023-04-16T04:28:43.745Z,97.67
2023-04-16T04:29:43.901Z,97.56
2023-04-16T04:30:43.599Z,97.56
2023-04-16T04:31:43.824Z,97.47
2023-04-16T04:32:43.635Z,97.67
2023-04-16T04:33:43.750Z,97.47
2023-04-16T04:34:43.579Z,97.16
2023-04-16T04:35:43.836Z,96.84
2023-04-16T04:36:43.594Z,96.44
2023-04-16T04:37:43.830Z,96.12
2023-04-16T04:38:43.562Z,95.71
2023-04-16T04:39:44.747Z,95.71
2023-04-16T04:40:43.668Z,95.71
2023-04-16T04:41:43.675Z,95.50
2023-04-16T04:42:43.581Z,94.99
2023-04-16T04:43:43.810Z,95.92
2023-04-16T04:44:43.600Z,96.58
2023-04-16T04:45:42.924Z,96.69
2023-04-16T04:46:43.622Z,96.99
2023-04-16T04:47:42.856Z,96.79
2023-04-16T04:48:43.582Z,96.69
2023-04-16T04:49:43.445Z,96.58
2023-04-16T04:50:43.658Z,96.69
2023-04-16T04:51:43.466Z,96.79
2023-04-16T04:52:43.608Z,96.89
2023-04-16T04:53:43.509Z,96.99
2023-04-16T04:54:43.558Z,96.99
2023-04-16T04:55:43.657Z,97.09
2023-04-16T04:56:43.630Z,97.20
2023-04-16T04:57:43.434Z,97.20
2023-04-16T04:58:43.604Z,97.09
2023-04-16T04:59:43.414Z,96.89
2023-04-16T05:00:43.277Z,96.89
2023-04-16T05:01:43.592Z,96.89
2023-04-16T05:02:43.478Z,96.84
2023-04-16T05:03:43.580Z,96.84
2023-04-16T05:04:43.360Z,96.84
2023-04-16T05:05:43.441Z,96.95
2023-04-16T05:06:43.389Z,96.53
2023-04-16T05:07:43.432Z,96.53
2023-04-16T05:08:43.301Z,96.02
2023-04-16T05:09:43.446Z,96.02
2023-04-16T05:10:43.282Z,96.12
2023-04-16T05:11:43.433Z,96.12
2023-04-16T05:12:43.453Z,96.02
2023-04-16T05:13:43.340Z,95.92
2023-04-16T05:14:43.322Z,95.71
2023-04-16T05:15:43.350Z,95.50
2023-04-16T05:16:43.263Z,95.50
2023-04-16T05:17:43.266Z,95.96
2023-04-16T05:18:43.273Z,95.96
2023-04-16T05:19:43.100Z,96.48
2023-04-16T05:20:43.281Z,96.06
2023-04-16T05:21:43.190Z,96.17
2023-04-16T05:22:43.309Z,96.69
2023-04-16T05:23:43.145Z,96.84
2023-04-16T05:24:43.372Z,96.74
2023-04-16T05:25:43.176Z,96.84
2023-04-16T05:26:43.252Z,96.12
2023-04-16T05:27:43.215Z,95.50
2023-04-16T05:28:43.338Z,96.12
2023-04-16T05:29:43.201Z,96.44
2023-04-16T05:30:43.217Z,95.56
2023-04-16T05:31:43.122Z,95.20
2023-04-16T05:32:42.974Z,94.99
2023-04-16T05:33:43.214Z,96.02
2023-04-16T05:34:42.942Z,95.81
2023-04-16T05:35:43.218Z,96.49
2023-04-16T05:36:43.040Z,96.59
2023-04-16T05:37:43.170Z,95.87
2023-04-16T05:38:43.010Z,95.67
2023-04-16T05:39:43.104Z,95.52
2023-04-16T05:40:42.921Z,95.42
2023-04-16T05:41:43.071Z,95.10
2023-04-16T05:42:43.178Z,94.85
2023-04-16T05:43:43.211Z,95.02
2023-04-16T05:44:42.979Z,92.80
2023-04-16T05:45:43.604Z,93.58
2023-04-16T05:46:43.015Z,92.55
2023-04-16T05:47:43.420Z,93.06
2023-04-16T05:48:43.123Z,92.65
2023-04-16T05:49:43.361Z,92.34
2023-04-16T05:50:43.067Z,92.44
2023-04-16T05:51:43.382Z,91.31
2023-04-16T05:52:43.020Z,91.99
2023-04-16T05:53:42.925Z,93.12
2023-04-16T05:54:43.034Z,92.71
2023-04-16T05:55:43.148Z,92.50
2023-04-16T05:56:42.924Z,92.20
2023-04-16T05:57:43.533Z,91.27
2023-04-16T05:58:42.910Z,91.02
2023-04-16T05:59:43.730Z,92.05
2023-04-16T06:00:42.961Z,92.16
2023-04-16T06:01:43.295Z,91.33
2023-04-16T06:02:43.025Z,90.92
2023-04-16T06:03:42.914Z,90.00
2023-04-16T06:04:42.661Z,90.41
2023-04-16T06:05:43.420Z,90.20
2023-04-16T06:06:42.671Z,90.98
2023-04-16T06:07:43.372Z,90.83
2023-04-16T06:08:42.666Z,89.81
2023-04-16T06:09:43.785Z,89.34
2023-04-16T06:10:41.989Z,89.75
2023-04-16T06:11:43.480Z,90.26
2023-04-16T06:12:42.638Z,90.42
2023-04-16T06:13:43.447Z,90.80
2023-04-16T06:14:43.358Z,90.48
2023-04-16T06:15:43.599Z,90.24
2023-04-16T06:16:43.677Z,90.14
2023-04-16T06:17:42.946Z,90.34
2023-04-16T06:18:42.619Z,89.48
2023-04-16T06:19:41.881Z,89.27
2023-04-16T06:20:42.700Z,86.91
2023-04-16T06:21:43.148Z,88.45
2023-04-16T06:22:42.642Z,86.66
2023-04-16T06:23:41.837Z,87.90
2023-04-16T06:24:43.140Z,88.10
2023-04-16T06:25:41.888Z,88.27
2023-04-16T06:26:43.234Z,87.96
2023-04-16T06:27:43.200Z,87.41
2023-04-16T06:28:43.594Z,86.28
2023-04-16T06:29:43.182Z,85.52
2023-04-16T06:30:44.513Z,84.70
2023-04-16T06:31:42.849Z,86.10
2023-04-16T06:32:42.655Z,81.08
2023-04-16T06:33:42.467Z,79.75
2023-04-16T06:34:42.627Z,80.43
2023-04-16T06:35:42.590Z,85.10
2023-04-16T06:36:43.182Z,81.79
2023-04-16T06:37:42.563Z,81.68
2023-04-16T06:38:42.318Z,81.44
2023-04-16T06:39:41.680Z,78.78
2023-04-16T06:40:41.690Z,79.60
2023-04-16T06:41:43.048Z,80.52
2023-04-16T06:42:44.833Z,81.81
2023-04-16T06:43:42.477Z,78.81
2023-04-16T06:44:42.338Z,77.83
2023-04-16T06:45:42.448Z,78.64
2023-04-16T06:46:42.422Z,79.63
2023-04-16T06:47:41.655Z,76.87
2023-04-16T06:48:43.231Z,78.41
2023-04-16T06:49:42.596Z,78.61
2023-04-16T06:50:42.361Z,77.04
2023-04-16T06:51:42.369Z,75.61
2023-04-16T06:52:42.669Z,74.96
2023-04-16T06:53:42.236Z,75.23
2023-04-16T06:54:42.390Z,76.35
2023-04-16T06:55:42.222Z,77.75
2023-04-16T06:56:42.277Z,77.03
2023-04-16T06:57:41.537Z,75.98
2023-04-16T06:58:42.287Z,74.45
2023-04-16T06:59:42.152Z,76.83
2023-04-16T07:00:42.344Z,75.92
2023-04-16T07:01:42.182Z,75.60
2023-04-16T07:02:42.452Z,75.71
2023-04-16T07:03:42.289Z,77.95
2023-04-16T07:04:42.217Z,76.12
2023-04-16T07:05:42.187Z,75.30
2023-04-16T07:06:42.198Z,75.81
2023-04-16T07:07:42.202Z,72.55
2023-04-16T07:08:42.798Z,76.83
2023-04-16T07:09:42.161Z,76.01
2023-04-16T07:10:41.998Z,78.63
2023-04-16T07:11:42.154Z,74.38
2023-04-16T07:12:42.339Z,74.96
2023-04-16T07:13:42.329Z,73.33
2023-04-16T07:14:42.726Z,74.35
2023-04-16T07:15:42.171Z,77.71
2023-04-16T07:16:42.079Z,72.08
2023-04-16T07:17:42.132Z,69.93
2023-04-16T07:18:42.083Z,72.25
2023-04-16T07:19:42.129Z,72.78
2023-04-16T07:20:42.014Z,75.02
2023-04-16T07:21:42.077Z,74.89
2023-04-16T07:22:42.004Z,75.37
2023-04-16T07:23:41.921Z,76.18
2023-04-16T07:24:42.031Z,75.13
2023-04-16T07:25:42.358Z,73.77
2023-04-16T07:26:42.038Z,69.46
2023-04-16T07:27:41.848Z,67.43
2023-04-16T07:28:42.238Z,68.88
2023-04-16T07:29:41.907Z,72.45
2023-04-16T07:30:42.083Z,71.19
2023-04-16T07:31:41.889Z,74.86
2023-04-16T07:32:42.126Z,74.79
2023-04-16T07:33:41.916Z,70.96
2023-04-16T07:34:41.961Z,73.13
2023-04-16T07:35:42.182Z,70.48
2023-04-16T07:36:42.829Z,71.20
2023-04-16T07:37:42.849Z,67.84
2023-04-16T07:38:41.720Z,70.59
2023-04-16T07:39:41.897Z,73.74
2023-04-16T07:40:41.749Z,69.10
2023-04-16T07:41:41.900Z,64.70
2023-04-16T07:42:41.718Z,66.94
2023-04-16T07:43:41.881Z,64.45
2023-04-16T07:44:41.893Z,64.11
2023-04-16T07:45:41.855Z,65.36
2023-04-16T07:46:46.741Z,67.21
2023-04-16T07:47:41.900Z,67.27
2023-04-16T07:48:41.692Z,68.66
2023-04-16T07:49:41.792Z,66.69
2023-04-16T07:50:41.788Z,72.45
2023-04-16T07:51:41.831Z,72.52
2023-04-16T07:52:41.702Z,66.86
2023-04-16T07:53:41.580Z,68.70
2023-04-16T07:54:41.732Z,69.30
2023-04-16T07:55:41.658Z,65.04
2023-04-16T07:56:41.677Z,68.08
2023-04-16T07:57:41.552Z,70.11
2023-04-16T07:58:41.773Z,69.84
2023-04-16T07:59:41.589Z,67.47
2023-04-16T08:00:41.692Z,72.17
2023-04-16T08:01:41.770Z,71.40
2023-04-16T08:02:41.804Z,72.25
2023-04-16T08:03:41.669Z,68.35
2023-04-16T08:04:41.827Z,66.50
2023-04-16T08:05:41.639Z,67.00
2023-04-16T08:06:41.599Z,67.31
2023-04-16T08:07:41.520Z,67.79
2023-04-16T08:08:41.419Z,62.62
2023-04-16T08:09:41.528Z,65.15
2023-04-16T08:10:41.393Z,64.75
2023-04-16T08:11:42.620Z,63.53
2023-04-16T08:12:41.384Z,67.95
2023-04-16T08:13:41.483Z,67.21
2023-04-16T08:14:41.360Z,66.27
2023-04-16T08:15:41.557Z,67.48
2023-04-16T08:16:41.610Z,63.46
2023-04-16T08:17:41.569Z,65.92
2023-04-16T08:18:41.370Z,68.35
2023-04-16T08:19:41.463Z,68.76
2023-04-16T08:20:41.381Z,67.48
2023-04-16T08:21:41.740Z,63.30
2023-04-16T08:22:41.340Z,65.62
2023-04-16T08:23:41.631Z,63.50
2023-04-16T08:24:41.362Z,63.40
2023-04-16T08:25:41.219Z,63.81
2023-04-16T08:26:41.620Z,61.35
2023-04-16T08:27:41.368Z,62.63
2023-04-16T08:28:41.392Z,61.05
2023-04-16T08:29:41.170Z,61.76
2023-04-16T08:30:41.312Z,64.52
2023-04-16T08:31:41.272Z,62.50
2023-04-16T08:32:41.703Z,60.55
2023-04-16T08:33:41.303Z,61.60
2023-04-16T08:34:41.301Z,57.21
2023-04-16T08:35:41.259Z,54.68
2023-04-16T08:36:41.340Z,58.82
2023-04-16T08:37:40.512Z,60.57
2023-04-16T08:38:41.301Z,58.30
2023-04-16T08:39:41.264Z,56.58
2023-04-16T08:40:41.011Z,56.61
2023-04-16T08:41:41.352Z,58.83
2023-04-16T08:42:41.118Z,55.40
2023-04-16T08:43:41.230Z,60.25
2023-04-16T08:44:41.111Z,61.36
2023-04-16T08:45:41.493Z,58.82
2023-04-16T08:46:41.155Z,56.20
2023-04-16T08:47:41.295Z,54.91
2023-04-16T08:48:41.093Z,56.12
2023-04-16T08:49:41.167Z,54.86
2023-04-16T08:50:41.280Z,56.15
2023-04-16T08:51:41.278Z,53.40
2023-04-16T08:52:40.302Z,55.44
2023-04-16T08:53:41.251Z,55.14
2023-04-16T08:54:41.110Z,55.57
2023-04-16T08:55:40.892Z,54.71
2023-04-16T08:56:42.941Z,56.27
2023-04-16T08:57:40.893Z,55.77
2023-04-16T08:58:41.771Z,54.28
2023-04-16T08:59:40.912Z,54.99
2023-04-16T09:00:40.223Z,55.98
2023-04-16T09:01:41.771Z,58.64
2023-04-16T09:02:41.173Z,55.73
2023-04-16T09:03:42.058Z,60.77
2023-04-16T09:04:41.194Z,61.17
2023-04-16T09:05:40.922Z,61.98
2023-04-16T09:06:40.931Z,60.03
2023-04-16T09:07:40.911Z,57.21
2023-04-16T09:08:40.969Z,57.06
2023-04-16T09:09:40.890Z,57.21
2023-04-16T09:10:41.959Z,55.88
2023-04-16T09:11:40.940Z,57.50
2023-04-16T09:12:40.728Z,61.90
2023-04-16T09:13:40.076Z,63.35
2023-04-16T09:14:40.690Z,61.83
2023-04-16T09:15:40.969Z,63.06
2023-04-16T09:16:40.463Z,63.23
2023-04-16T09:17:41.932Z,61.83
2023-04-16T09:18:41.712Z,60.44
2023-04-16T09:19:40.031Z,64.23
2023-04-16T09:20:42.202Z,62.02
2023-04-16T09:21:43.130Z,62.74
2023-04-16T09:22:40.726Z,62.66
2023-04-16T09:23:40.105Z,63.37
2023-04-16T09:24:40.721Z,64.70
2023-04-16T09:25:41.862Z,63.81
2023-04-16T09:26:39.950Z,68.15
2023-04-16T09:27:40.541Z,65.71
2023-04-16T09:28:40.895Z,66.15
2023-04-16T09:29:39.932Z,66.76
2023-04-16T09:30:40.765Z,66.05
2023-04-16T09:31:40.647Z,64.52
2023-04-16T09:32:40.754Z,64.65
2023-04-16T09:33:40.518Z,67.30
2023-04-16T09:34:40.239Z,65.13
2023-04-16T09:35:41.533Z,65.84
2023-04-16T09:36:39.911Z,63.74
2023-04-16T09:37:40.521Z,66.35
2023-04-16T09:38:40.642Z,63.94
2023-04-16T09:39:40.632Z,65.44
2023-04-16T09:40:39.823Z,64.32
2023-04-16T09:41:41.660Z,65.03
2023-04-16T09:42:39.812Z,61.20
2023-04-16T09:43:41.524Z,63.23
2023-04-16T09:44:41.041Z,63.43
2023-04-16T09:45:39.790Z,66.52
2023-04-16T09:46:41.700Z,65.80
2023-04-16T09:47:42.648Z,65.80
2023-04-16T09:48:40.400Z,62.35
2023-04-16T09:49:40.514Z,61.43
2023-04-16T09:50:40.372Z,59.91
2023-04-16T09:51:41.572Z,61.33
2023-04-16T09:52:39.790Z,64.48
2023-04-16T09:53:40.532Z,60.34
2023-04-16T09:54:40.902Z,62.37
2023-04-16T09:55:41.483Z,63.16
2023-04-16T09:56:39.641Z,64.18
2023-04-16T09:57:41.712Z,64.38
2023-04-16T09:58:41.487Z,62.04
2023-04-16T09:59:40.213Z,60.21
2023-04-16T10:00:43.600Z,61.20
2023-04-16T10:01:40.345Z,63.64
2023-04-16T10:02:41.954Z,62.11
2023-04-16T10:03:40.572Z,62.21
2023-04-16T10:04:41.656Z,60.69
2023-04-16T10:05:40.289Z,60.38
2023-04-16T10:06:39.575Z,62.21
2023-04-16T10:07:40.232Z,61.60
2023-04-16T10:08:40.983Z,61.53
2023-04-16T10:09:40.254Z,62.62
2023-04-16T10:10:40.315Z,63.94
2023-04-16T10:11:41.295Z,62.93
2023-04-16T10:12:40.106Z,60.00
2023-04-16T10:13:40.332Z,62.30
2023-04-16T10:14:40.074Z,62.92
2023-04-16T10:15:40.245Z,64.23
2023-04-16T10:16:40.132Z,63.09
2023-04-16T10:17:40.271Z,65.57
2023-04-16T10:18:41.075Z,62.90
2023-04-16T10:19:40.277Z,62.90
2023-04-16T10:20:40.103Z,62.59
2023-04-16T10:21:40.184Z,57.66
2023-04-16T10:22:40.055Z,62.71
2023-04-16T10:23:40.208Z,61.76
2023-04-16T10:24:40.154Z,59.74
2023-04-16T10:25:39.365Z,58.22
2023-04-16T10:26:40.106Z,59.50
2023-04-16T10:27:41.252Z,58.18
2023-04-16T10:28:39.336Z,58.09
2023-04-16T10:29:41.155Z,55.35
2023-04-16T10:30:40.472Z,60.08
2023-04-16T10:31:40.953Z,54.82
2023-04-16T10:32:39.284Z,58.74
2023-04-16T10:33:41.111Z,59.55
2023-04-16T10:34:40.165Z,56.03
2023-04-16T10:35:39.261Z,58.62
2023-04-16T10:36:40.017Z,57.60
2023-04-16T10:37:40.033Z,59.01
2023-04-16T10:38:39.202Z,62.56
2023-04-16T10:39:39.888Z,61.41
2023-04-16T10:40:39.256Z,59.59
2023-04-16T10:41:39.932Z,60.07
2023-04-16T10:42:39.998Z,59.74
2023-04-16T10:43:39.942Z,59.81
2023-04-16T10:44:40.958Z,59.41
2023-04-16T10:45:39.963Z,58.90
2023-04-16T10:46:39.914Z,58.22
2023-04-16T10:47:39.906Z,61.90
2023-04-16T10:48:49.645Z,61.11
2023-04-16T10:49:39.932Z,62.13
2023-04-16T10:50:39.859Z,60.20
2023-04-16T10:51:39.948Z,59.89
2023-04-16T10:52:40.056Z,59.46
2023-04-16T10:53:39.943Z,57.88
2023-04-16T10:54:39.754Z,56.03
2023-04-16T10:55:39.949Z,59.65
2023-04-16T10:56:39.820Z,59.75
2023-04-16T10:57:39.801Z,60.81
2023-04-16T10:58:39.755Z,60.00
2023-04-16T10:59:39.623Z,56.61
2023-04-16T11:00:40.056Z,56.67
2023-04-16T11:01:39.668Z,59.81
2023-04-16T11:02:40.001Z,59.63
2023-04-16T11:03:39.159Z,60.42
2023-04-16T11:04:39.807Z,58.18
2023-04-16T11:05:39.554Z,58.49
2023-04-16T11:06:39.790Z,59.33
2023-04-16T11:07:39.660Z,60.31
2023-04-16T11:08:53.234Z,59.65
2023-04-16T11:09:39.631Z,58.51
2023-04-16T11:10:39.705Z,58.31
2023-04-16T11:11:39.683Z,58.44
2023-04-16T11:12:39.655Z,57.73
2023-04-16T11:13:39.726Z,57.55
2023-04-16T11:14:39.636Z,59.14
2023-04-16T11:15:39.606Z,59.34
2023-04-16T11:16:39.529Z,61.41
2023-04-16T11:17:39.624Z,57.54
2023-04-16T11:18:43.658Z,59.77
2023-04-16T11:19:39.926Z,57.37
2023-04-16T11:20:39.459Z,58.71
2023-04-16T11:21:39.551Z,59.88
2023-04-16T11:22:39.618Z,57.28
2023-04-16T11:23:40.088Z,60.88
2023-04-16T11:24:39.462Z,61.87
2023-04-16T11:25:40.162Z,61.13
2023-04-16T11:26:39.474Z,59.30
2023-04-16T11:27:39.720Z,56.16
2023-04-16T11:28:39.440Z,62.85
2023-04-16T11:29:39.571Z,60.04
2023-04-16T11:30:39.437Z,58.31
2023-04-16T11:31:39.286Z,59.53
2023-04-16T11:32:39.575Z,60.01
2023-04-16T11:33:39.380Z,57.93
2023-04-16T11:34:39.488Z,58.23
2023-04-16T11:35:39.349Z,59.22
2023-04-16T11:36:39.436Z,59.52
2023-04-16T11:37:39.326Z,58.07
2023-04-16T11:38:39.451Z,57.34
2023-04-16T11:39:39.251Z,57.37
2023-04-16T11:40:39.377Z,57.17
2023-04-16T11:41:39.268Z,58.18
2023-04-16T11:42:39.473Z,54.36
2023-04-16T11:43:39.437Z,55.50
2023-04-16T11:44:38.550Z,56.82
2023-04-16T11:45:39.306Z,58.13
2023-04-16T11:46:39.141Z,57.62
2023-04-16T11:47:39.302Z,57.93
2023-04-16T11:48:39.339Z,57.50
2023-04-16T11:49:39.268Z,55.77
2023-04-16T11:50:39.111Z,58.11
2023-04-16T11:51:39.327Z,58.07
2023-04-16T11:52:39.100Z,58.38
2023-04-16T11:53:39.228Z,54.94
2023-04-16T11:54:39.172Z,56.56
2023-04-16T11:55:39.211Z,56.73
2023-04-16T11:56:39.129Z,54.71
2023-04-16T11:57:39.936Z,52.72
2023-04-16T11:58:39.096Z,55.30
2023-04-16T12:00:02.315Z,57.42
2023-04-16T12:00:39.089Z,57.02
2023-04-16T12:01:39.169Z,55.98
2023-04-16T12:02:39.304Z,55.85
2023-04-16T12:03:38.501Z,57.87
2023-04-16T12:04:40.025Z,54.05
2023-04-16T12:05:39.347Z,55.98
2023-04-16T12:06:38.311Z,54.46
2023-04-16T12:07:40.142Z,52.64
2023-04-16T12:08:39.437Z,53.85
2023-04-16T12:09:40.749Z,56.31
2023-04-16T12:10:39.212Z,57.32
2023-04-16T12:11:38.927Z,57.55
2023-04-16T12:12:40.091Z,59.27
2023-04-16T12:13:38.969Z,58.18
2023-04-16T12:14:40.036Z,58.18
2023-04-16T12:15:39.060Z,58.39
2023-04-16T12:16:39.836Z,56.92
2023-04-16T12:17:38.224Z,60.44
2023-04-16T12:18:39.872Z,58.72
2023-04-16T12:19:38.919Z,59.63
2023-04-16T12:20:38.760Z,57.50
2023-04-16T12:21:40.053Z,58.85
2023-04-16T12:22:38.760Z,59.18
2023-04-16T12:23:39.129Z,60.27
2023-04-16T12:24:39.096Z,61.29
2023-04-16T12:25:39.601Z,57.93
2023-04-16T12:26:38.952Z,59.16
2023-04-16T12:27:38.082Z,60.35
2023-04-16T12:28:38.873Z,59.91
2023-04-16T12:29:38.925Z,58.26
2023-04-16T12:30:38.955Z,57.07
2023-04-16T12:31:38.054Z,55.35
2023-04-16T12:32:38.989Z,56.05
2023-04-16T12:33:38.024Z,59.48
2023-04-16T12:34:48.511Z,56.61
2023-04-16T12:35:38.735Z,57.32
2023-04-16T12:36:39.822Z,55.60
2023-04-16T12:37:38.810Z,54.59
2023-04-16T12:38:38.762Z,54.59
2023-04-16T12:39:39.674Z,54.59
2023-04-16T12:40:38.963Z,54.69
2023-04-16T12:41:38.672Z,53.58
2023-04-16T12:42:38.838Z,53.19
2023-04-16T12:43:38.672Z,56.41
2023-04-16T12:44:38.814Z,57.09
2023-04-16T12:45:38.694Z,55.55
2023-04-16T12:46:38.911Z,54.53
2023-04-16T12:47:38.768Z,54.64
2023-04-16T12:48:38.484Z,55.55
2023-04-16T12:49:38.623Z,55.47
2023-04-16T12:50:38.542Z,55.17
2023-04-16T12:51:38.946Z,55.07
2023-04-16T12:52:38.504Z,54.28